Time;durP1;ratioP1;P1;durP2;ratioP2;P2;SDS_P1;SDS_P2;PMS_P1;PMS_P2;Temp;Humidity;BMP_temperature;BMP_pressure;BME280_temperature;BME280_humidity;BME280_pressure;Samples;Min_cycle;Max_cycle;Signal;HPM_P1;HPM_P2
2022/10/21 00:02:02;;;;;;;9.33;7.00;;;10.10;99.90;;;;;;5113068;28;20496;-71
2022/10/21 00:04:32;;;;;;;7.80;6.70;;;10.10;99.90;;;;;;5112279;28;20469;-71
2022/10/21 00:06:59;;;;;;;9.73;6.90;;;10.10;99.90;;;;;;5112050;28;20449;-71
2022/10/21 00:09:26;;;;;;;8.77;7.20;;;10.10;99.90;;;;;;5112452;28;20462;-71
2022/10/21 00:11:52;;;;;;;16.17;11.10;;;10.20;99.90;;;;;;5102721;28;20862;-70
2022/10/21 00:14:19;;;;;;;9.53;7.00;;;10.20;99.90;;;;;;5111760;28;20473;-71
2022/10/21 00:16:46;;;;;;;8.00;6.20;;;10.10;99.90;;;;;;5110713;28;20478;-71
2022/10/21 00:19:13;;;;;;;9.20;6.60;;;10.10;99.90;;;;;;5112452;28;20474;-72
2022/10/21 00:21:42;;;;;;;10.83;7.10;;;10.10;99.90;;;;;;5114973;28;20453;-72
2022/10/21 00:24:09;;;;;;;10.50;6.63;;;10.10;99.90;;;;;;5114186;28;20453;-71
2022/10/21 00:26:36;;;;;;;8.27;6.10;;;10.10;99.90;;;;;;5113509;28;20854;-71
2022/10/21 00:29:02;;;;;;;11.10;7.40;;;10.00;99.90;;;;;;5113947;28;20488;-71
2022/10/21 00:31:30;;;;;;;9.00;7.03;;;10.00;99.90;;;;;;5114589;28;20457;-72
2022/10/21 00:33:57;;;;;;;8.80;7.90;;;10.00;99.90;;;;;;5113575;28;20505;-72
2022/10/21 00:36:24;;;;;;;10.90;7.33;;;10.00;99.90;;;;;;5114669;28;20456;-71
2022/10/21 00:38:52;;;;;;;8.33;6.77;;;10.00;99.90;;;;;;5112533;28;20495;-72
2022/10/21 00:41:20;;;;;;;8.80;7.13;;;10.00;99.90;;;;;;5111589;28;20445;-71
2022/10/21 00:43:58;;;;;;;6.93;6.00;;;10.00;99.90;;;;;;5115263;28;20908;-71
2022/10/21 00:46:34;;;;;;;9.20;7.03;;;9.90;99.90;;;;;;5115945;28;20913;-72
2022/10/21 00:49:05;;;;;;;9.60;6.70;;;9.80;99.90;;;;;;5116074;28;20861;-71
2022/10/21 00:51:32;;;;;;;10.43;7.30;;;9.90;99.90;;;;;;5116584;28;20422;-70
2022/10/21 00:54:02;;;;;;;11.47;7.90;;;9.90;99.90;;;;;;5116280;28;20555;-71
2022/10/21 00:56:32;;;;;;;8.80;6.63;;;9.90;99.90;;;;;;5116444;28;20731;-70
2022/10/21 00:59:02;;;;;;;8.40;7.47;;;9.90;99.90;;;;;;5103650;28;20437;-70
2022/10/21 01:01:29;;;;;;;11.63;7.13;;;9.90;99.90;;;;;;5095814;28;20473;-71
2022/10/21 01:03:56;;;;;;;9.33;7.40;;;10.00;99.90;;;;;;5099465;28;20504;-68
2022/10/21 01:06:25;;;;;;;14.97;9.10;;;9.90;99.90;;;;;;5100513;28;20496;-69
2022/10/21 01:08:54;;;;;;;8.53;7.03;;;9.90;99.90;;;;;;5100702;28;20552;-69
2022/10/21 01:11:24;;;;;;;8.00;6.87;;;9.90;99.90;;;;;;5101373;28;20540;-69
2022/10/21 01:14:07;;;;;;;10.00;6.83;;;9.90;99.90;;;;;;5100571;28;20521;-69
2022/10/21 01:16:42;;;;;;;8.30;7.07;;;9.90;99.90;;;;;;5100492;28;20540;-69
2022/10/21 01:19:41;;;;;;;9.10;7.10;;;9.90;99.90;;;;;;5099913;28;20532;-68
2022/10/21 01:22:23;;;;;;;10.37;7.13;;;10.00;99.90;;;;;;5099459;28;20838;-68
2022/10/21 01:25:05;;;;;;;12.10;8.27;;;10.00;99.90;;;;;;5099472;28;20469;-68
2022/10/21 01:27:43;;;;;;;12.90;7.70;;;10.00;99.90;;;;;;5099256;28;20470;-68
2022/10/21 01:30:16;;;;;;;8.43;7.00;;;9.90;99.90;;;;;;5098705;28;20465;-68
2022/10/21 01:33:07;;;;;;;10.30;7.50;;;9.90;99.90;;;;;;5099443;28;20509;-70
2022/10/21 01:35:40;;;;;;;7.37;6.60;;;9.90;99.90;;;;;;5099320;28;20433;-69
2022/10/21 01:38:12;;;;;;;11.83;7.70;;;9.80;99.90;;;;;;5100826;28;20501;-68
2022/10/21 01:40:46;;;;;;;10.60;7.30;;;9.90;99.90;;;;;;5100396;28;20440;-68
2022/10/21 01:43:20;;;;;;;8.93;7.17;;;9.90;99.90;;;;;;5099592;28;20442;-68
2022/10/21 01:45:51;;;;;;;13.80;7.73;;;9.90;99.90;;;;;;5100412;28;20489;-69
2022/10/21 01:48:21;;;;;;;9.17;6.80;;;9.90;99.90;;;;;;5100819;28;20465;-69
2022/10/21 01:50:53;;;;;;;9.27;7.50;;;9.90;99.90;;;;;;5099913;28;20553;-68
2022/10/21 01:53:21;;;;;;;9.67;8.40;;;9.90;99.90;;;;;;5099192;28;20485;-69
2022/10/21 01:55:50;;;;;;;10.03;7.53;;;10.00;99.90;;;;;;5098474;28;20481;-68
2022/10/21 01:58:20;;;;;;;9.83;7.20;;;10.00;99.90;;;;;;5098061;28;20632;-68
2022/10/21 02:00:49;;;;;;;8.40;6.37;;;10.00;99.90;;;;;;5098894;28;20524;-68
2022/10/21 02:03:22;;;;;;;8.37;7.00;;;10.00;99.90;;;;;;5100166;28;20460;-68
2022/10/21 02:05:50;;;;;;;9.73;8.33;;;10.10;99.90;;;;;;5099758;28;20461;-69
2022/10/21 02:08:16;;;;;;;11.00;7.60;;;10.00;99.90;;;;;;5098914;28;20544;-68
2022/10/21 02:10:47;;;;;;;9.63;7.70;;;10.00;99.90;;;;;;5097873;28;20544;-67
2022/10/21 02:13:22;;;;;;;11.53;8.30;;;10.10;99.90;;;;;;5097526;28;20544;-69
2022/10/21 02:15:53;;;;;;;11.93;7.30;;;10.20;99.90;;;;;;5098112;28;20528;-69
2022/10/21 02:18:24;;;;;;;13.03;7.67;;;10.10;99.90;;;;;;5098001;28;20563;-69
2022/10/21 02:20:55;;;;;;;12.70;8.47;;;10.20;99.90;;;;;;5096600;28;20536;-69
2022/10/21 02:23:29;;;;;;;13.27;7.93;;;10.20;99.90;;;;;;5097664;28;20518;-69
2022/10/21 02:25:56;;;;;;;10.63;8.63;;;10.20;99.90;;;;;;5097486;28;20563;-69
2022/10/21 02:28:23;;;;;;;12.37;8.70;;;10.30;99.90;;;;;;5096021;28;20524;-69
2022/10/21 02:31:06;;;;;;;9.07;8.07;;;10.30;99.90;;;;;;5096607;28;20497;-69
2022/10/21 02:33:47;;;;;;;9.27;7.57;;;10.40;99.90;;;;;;5096989;28;20492;-69
2022/10/21 02:36:21;;;;;;;8.93;7.60;;;10.40;99.90;;;;;;5098787;28;20827;-68
2022/10/21 02:38:53;;;;;;;8.27;7.37;;;10.50;99.90;;;;;;5098256;28;20517;-68
2022/10/21 02:41:23;;;;;;;9.50;8.10;;;10.50;99.90;;;;;;5102518;28;20929;-68
2022/10/21 02:43:54;;;;;;;8.47;7.47;;;10.50;99.90;;;;;;5105210;28;20492;-67
2022/10/21 02:46:21;;;;;;;9.87;7.30;;;10.50;99.90;;;;;;5106230;28;20548;-69
2022/10/21 02:48:49;;;;;;;10.77;7.83;;;10.50;99.90;;;;;;5102846;28;20456;-68
2022/10/21 02:51:17;;;;;;;8.83;7.83;;;10.50;99.90;;;;;;5102551;28;20793;-67
2022/10/21 02:53:44;;;;;;;8.67;7.27;;;10.50;99.90;;;;;;5102229;28;20516;-68
2022/10/21 02:56:11;;;;;;;9.80;7.50;;;10.50;99.90;;;;;;5102310;28;20469;-68
2022/10/21 02:58:38;;;;;;;9.30;8.00;;;10.50;99.90;;;;;;5102139;28;20529;-68
2022/10/21 03:01:05;;;;;;;12.50;7.67;;;10.50;99.90;;;;;;5101851;28;20500;-69
2022/10/21 03:03:32;;;;;;;11.90;7.97;;;10.60;99.90;;;;;;5102737;28;20489;-68
2022/10/21 03:06:00;;;;;;;13.03;8.23;;;10.60;99.90;;;;;;5102106;28;20541;-69
2022/10/21 03:08:27;;;;;;;9.80;6.83;;;10.60;99.90;;;;;;5102568;28;20477;-69
2022/10/21 03:10:54;;;;;;;8.87;7.93;;;10.60;99.90;;;;;;5102718;28;20516;-67
2022/10/21 03:13:21;;;;;;;11.10;8.23;;;10.60;99.90;;;;;;5102423;28;20541;-69
2022/10/21 03:15:48;;;;;;;10.50;8.07;;;10.70;99.90;;;;;;5101980;28;20477;-69
2022/10/21 03:18:15;;;;;;;9.77;8.10;;;10.70;99.90;;;;;;5102331;28;20989;-68
2022/10/21 03:20:42;;;;;;;10.40;8.30;;;10.70;99.90;;;;;;5102538;28;20488;-68
2022/10/21 03:23:10;;;;;;;12.53;8.30;;;10.60;99.90;;;;;;5102688;28;20548;-67
2022/10/21 03:25:37;;;;;;;8.80;7.87;;;10.60;99.90;;;;;;5102384;28;20576;-68
2022/10/21 03:28:04;;;;;;;8.63;7.73;;;10.60;99.90;;;;;;5102077;28;20569;-69
2022/10/21 03:30:32;;;;;;;10.30;7.10;;;10.60;99.90;;;;;;5100620;28;20461;-68
2022/10/21 03:32:58;;;;;;;11.97;8.20;;;10.60;99.90;;;;;;5101566;28;20485;-69
2022/10/21 03:35:25;;;;;;;10.67;8.73;;;10.60;99.90;;;;;;5103438;28;20525;-69
2022/10/21 03:37:52;;;;;;;10.17;9.00;;;10.60;99.90;;;;;;5104147;28;20480;-69
2022/10/21 03:40:22;;;;;;;11.47;8.00;;;10.50;99.90;;;;;;5104002;28;20520;-68
2022/10/21 03:42:49;;;;;;;9.87;8.03;;;10.50;99.90;;;;;;5102771;28;20835;-68
2022/10/21 03:45:16;;;;;;;11.07;8.80;;;10.50;99.90;;;;;;5101919;28;20649;-68
2022/10/21 03:47:43;;;;;;;9.37;8.30;;;10.50;99.90;;;;;;5101791;28;20997;-68
2022/10/21 03:50:10;;;;;;;12.97;9.00;;;10.50;99.90;;;;;;5102315;28;20490;-67
2022/10/21 03:52:37;;;;;;;10.47;8.03;;;10.50;99.90;;;;;;5101558;28;20465;-67
2022/10/21 03:55:04;;;;;;;8.90;8.00;;;10.60;99.90;;;;;;5102386;28;20540;-68
2022/10/21 03:57:32;;;;;;;9.27;8.10;;;10.60;99.90;;;;;;5101706;28;20552;-68
2022/10/21 03:59:59;;;;;;;10.13;9.00;;;10.60;99.90;;;;;;5101788;28;20483;-68
2022/10/21 04:02:26;;;;;;;10.23;9.10;;;10.60;99.90;;;;;;5102150;28;20463;-69
2022/10/21 04:04:53;;;;;;;13.47;9.47;;;10.70;99.90;;;;;;5102871;28;20461;-68
2022/10/21 04:07:20;;;;;;;11.80;9.00;;;10.70;99.90;;;;;;5102429;28;20509;-68
2022/10/21 04:09:46;;;;;;;10.67;8.40;;;10.70;99.90;;;;;;5101443;28;20547;-69
2022/10/21 04:12:13;;;;;;;12.43;8.70;;;10.70;99.90;;;;;;5101413;28;20552;-68
2022/10/21 04:14:41;;;;;;;10.23;8.67;;;10.70;99.90;;;;;;5101979;28;20481;-67
2022/10/21 04:17:08;;;;;;;10.20;8.93;;;10.70;99.90;;;;;;5101443;28;20445;-68
2022/10/21 04:19:35;;;;;;;13.10;8.70;;;10.70;99.90;;;;;;5100652;28;20539;-68
2022/10/21 04:22:02;;;;;;;11.63;9.40;;;10.80;99.90;;;;;;5101104;28;20489;-69
2022/10/21 04:24:29;;;;;;;9.70;8.70;;;10.80;99.90;;;;;;5101868;28;20564;-69
2022/10/21 04:26:56;;;;;;;9.57;7.97;;;10.80;99.90;;;;;;5100977;28;20487;-69
2022/10/21 04:29:23;;;;;;;10.07;9.00;;;10.80;99.90;;;;;;5101344;28;20491;-69
2022/10/21 04:31:51;;;;;;;13.00;9.93;;;10.80;99.90;;;;;;5103521;28;20488;-68
2022/10/21 04:34:18;;;;;;;11.00;8.90;;;10.80;99.90;;;;;;5103033;28;20496;-69
2022/10/21 04:36:44;;;;;;;12.90;9.10;;;10.70;99.90;;;;;;5103794;28;20488;-69
2022/10/21 04:39:11;;;;;;;12.70;9.63;;;10.60;99.90;;;;;;5104589;28;20477;-68
2022/10/21 04:41:38;;;;;;;12.60;11.30;;;10.60;99.90;;;;;;5104739;28;20472;-69
2022/10/21 04:44:06;;;;;;;11.77;9.40;;;10.60;99.90;;;;;;5103687;28;20484;-68
2022/10/21 04:46:33;;;;;;;10.20;8.50;;;10.50;99.90;;;;;;5104280;28;20481;-68
2022/10/21 04:49:01;;;;;;;10.20;9.00;;;10.50;99.90;;;;;;5103060;28;20488;-67
2022/10/21 04:51:28;;;;;;;11.67;9.30;;;10.50;99.90;;;;;;5103569;28;20488;-69
2022/10/21 04:53:55;;;;;;;14.80;9.67;;;10.40;99.90;;;;;;5103454;28;20537;-68
2022/10/21 04:56:21;;;;;;;12.07;10.33;;;10.40;99.90;;;;;;5104151;28;20481;-68
2022/10/21 04:58:48;;;;;;;14.90;9.63;;;10.30;99.90;;;;;;5104311;28;20525;-69
2022/10/21 05:01:15;;;;;;;15.20;9.90;;;10.40;99.90;;;;;;5103123;28;20973;-69
2022/10/21 05:03:42;;;;;;;11.07;9.87;;;10.40;99.90;;;;;;5102834;28;20511;-68
2022/10/21 05:06:10;;;;;;;10.27;9.17;;;10.40;99.90;;;;;;5103175;28;20533;-68
2022/10/21 05:08:37;;;;;;;11.13;9.30;;;10.40;99.90;;;;;;5103916;28;20538;-69
2022/10/21 05:11:04;;;;;;;15.20;10.40;;;10.50;99.90;;;;;;5104054;28;20493;-68
2022/10/21 05:13:32;;;;;;;11.27;10.07;;;10.50;99.90;;;;;;5103797;28;20453;-68
2022/10/21 05:16:01;;;;;;;12.37;9.90;;;10.50;99.90;;;;;;5102811;28;20449;-69
2022/10/21 05:18:29;;;;;;;11.20;9.20;;;10.50;99.90;;;;;;5102132;28;20457;-68
2022/10/21 05:20:56;;;;;;;13.33;11.30;;;10.50;99.90;;;;;;5102269;28;20517;-69
2022/10/21 05:23:26;;;;;;;10.43;9.33;;;10.50;99.90;;;;;;5101785;28;20457;-68
2022/10/21 05:25:53;;;;;;;13.10;9.70;;;10.60;99.90;;;;;;5102076;28;20564;-69
2022/10/21 05:28:20;;;;;;;11.20;9.70;;;10.60;99.90;;;;;;5102481;28;20568;-68
2022/10/21 05:30:47;;;;;;;107.43;71.00;;;10.60;99.90;;;;;;5102588;28;20492;-69
2022/10/21 05:33:14;;;;;;;12.53;10.40;;;10.60;99.90;;;;;;5102303;28;20463;-68
2022/10/21 05:35:41;;;;;;;10.73;8.90;;;10.60;99.90;;;;;;5101523;28;20925;-69
2022/10/21 05:38:08;;;;;;;14.57;9.90;;;10.60;99.90;;;;;;5101562;28;20459;-69
2022/10/21 05:40:36;;;;;;;15.43;9.57;;;10.60;99.90;;;;;;5101218;28;20861;-69
2022/10/21 05:43:03;;;;;;;11.60;10.03;;;10.70;99.90;;;;;;5101308;28;20457;-68
2022/10/21 05:45:30;;;;;;;10.47;9.37;;;10.70;99.90;;;;;;5101495;28;20528;-69
2022/10/21 05:47:57;;;;;;;12.13;9.63;;;10.70;99.90;;;;;;5101158;28;20503;-69
2022/10/21 05:50:24;;;;;;;12.87;9.10;;;10.70;99.90;;;;;;5101486;28;20553;-67
2022/10/21 05:52:50;;;;;;;15.30;9.40;;;10.80;99.90;;;;;;5095009;28;20441;-67
2022/10/21 05:55:17;;;;;;;10.50;9.00;;;10.80;99.90;;;;;;5095449;28;20468;-67
2022/10/21 05:57:46;;;;;;;13.80;9.40;;;10.80;99.90;;;;;;5095155;28;20492;-66
2022/10/21 06:00:13;;;;;;;13.20;9.90;;;10.80;99.90;;;;;;5095068;28;20457;-67
2022/10/21 06:02:40;;;;;;;11.53;9.83;;;10.90;99.90;;;;;;5094986;28;20882;-67
2022/10/21 06:05:07;;;;;;;12.77;9.87;;;10.90;99.90;;;;;;5095489;28;20467;-67
2022/10/21 06:07:34;;;;;;;11.93;9.77;;;10.90;99.90;;;;;;5094958;28;20564;-67
2022/10/21 06:10:01;;;;;;;14.87;9.50;;;10.90;99.90;;;;;;5094750;28;20461;-66
2022/10/21 06:12:28;;;;;;;12.90;9.53;;;10.90;99.90;;;;;;5094429;28;20526;-66
2022/10/21 06:14:56;;;;;;;10.73;9.27;;;10.90;99.90;;;;;;5094940;28;20545;-66
2022/10/21 06:17:23;;;;;;;11.03;9.60;;;11.00;99.90;;;;;;5095272;28;20459;-66
2022/10/21 06:19:50;;;;;;;16.10;10.00;;;11.00;99.90;;;;;;5094570;28;20450;-66
2022/10/21 06:22:17;;;;;;;12.23;10.57;;;11.00;99.90;;;;;;5094686;28;20467;-66
2022/10/21 06:24:44;;;;;;;13.27;11.13;;;11.00;99.90;;;;;;5095385;28;21020;-67
2022/10/21 06:27:10;;;;;;;12.87;9.90;;;11.00;99.90;;;;;;5094997;28;20492;-66
2022/10/21 06:29:37;;;;;;;12.33;10.07;;;11.00;99.90;;;;;;5094785;28;20574;-67
2022/10/21 06:32:06;;;;;;;11.20;9.30;;;11.00;99.90;;;;;;5094989;28;20496;-67
2022/10/21 06:34:33;;;;;;;11.30;9.70;;;11.10;99.90;;;;;;5094910;28;20485;-67
2022/10/21 06:36:59;;;;;;;10.43;9.20;;;11.10;99.90;;;;;;5094546;28;20500;-67
2022/10/21 06:39:26;;;;;;;14.50;10.13;;;11.10;99.90;;;;;;5094918;28;20832;-67
2022/10/21 06:41:53;;;;;;;10.40;9.40;;;11.10;99.90;;;;;;5095247;28;20548;-67
2022/10/21 06:44:20;;;;;;;12.23;10.80;;;11.10;99.90;;;;;;5094428;28;20809;-67
2022/10/21 06:46:47;;;;;;;13.17;9.97;;;11.10;99.90;;;;;;5094533;28;20477;-66
2022/10/21 06:49:15;;;;;;;12.83;10.37;;;11.00;99.90;;;;;;5094401;28;20556;-66
2022/10/21 06:51:42;;;;;;;11.70;9.90;;;11.10;99.90;;;;;;5094469;28;20555;-68
2022/10/21 06:54:09;;;;;;;13.47;10.97;;;11.00;99.90;;;;;;5094167;28;20467;-67
2022/10/21 06:56:35;;;;;;;12.37;10.63;;;11.00;99.90;;;;;;5094327;28;20449;-66
2022/10/21 06:59:02;;;;;;;15.10;11.67;;;10.90;99.90;;;;;;5094312;28;20849;-67
2022/10/21 07:01:31;;;;;;;22.17;13.60;;;10.90;99.90;;;;;;5093877;28;20963;-67
2022/10/21 07:03:59;;;;;;;14.60;10.77;;;11.00;99.90;;;;;;5094008;28;20461;-67
2022/10/21 07:06:27;;;;;;;20.57;10.80;;;11.00;99.90;;;;;;5094150;28;20477;-67
2022/10/21 07:08:54;;;;;;;14.70;11.03;;;11.10;99.90;;;;;;5094821;28;20647;-67
2022/10/21 07:11:21;;;;;;;12.30;10.67;;;11.20;99.90;;;;;;5094398;28;20461;-67
2022/10/21 07:13:48;;;;;;;12.07;10.80;;;11.20;99.90;;;;;;5094467;28;20454;-66
2022/10/21 07:16:19;;;;;;;15.73;11.30;;;11.30;99.90;;;;;;5095263;28;20500;-66
2022/10/21 07:18:45;;;;;;;22.83;10.20;;;11.40;99.90;;;;;;5095033;28;20473;-66
2022/10/21 07:21:16;;;;;;;12.77;10.50;;;11.50;99.90;;;;;;5095387;28;20540;-66
2022/10/21 07:23:46;;;;;;;13.33;10.57;;;11.50;99.90;;;;;;5093855;28;20461;-67
2022/10/21 07:26:13;;;;;;;15.20;10.73;;;11.50;99.90;;;;;;5094604;28;20524;-66
2022/10/21 07:28:40;;;;;;;14.60;10.87;;;11.50;99.90;;;;;;5097449;28;20972;-67
2022/10/21 07:31:08;;;;;;;14.40;10.17;;;11.50;99.90;;;;;;5097475;28;20449;-65
2022/10/21 07:33:35;;;;;;;11.10;9.53;;;11.50;99.90;;;;;;5097670;28;20461;-67
2022/10/21 07:36:05;;;;;;;11.50;10.30;;;11.60;99.90;;;;;;5097296;28;20546;-66
2022/10/21 07:38:32;;;;;;;13.23;10.80;;;11.60;99.90;;;;;;5097792;28;20548;-66
2022/10/21 07:41:03;;;;;;;14.00;10.27;;;11.60;99.90;;;;;;5097512;28;20453;-66
2022/10/21 07:43:30;;;;;;;11.30;9.40;;;11.60;99.90;;;;;;5097735;28;20452;-66
2022/10/21 07:45:58;;;;;;;12.93;9.67;;;11.60;99.90;;;;;;5098165;28;20539;-66
2022/10/21 07:48:25;;;;;;;15.43;10.70;;;11.60;99.90;;;;;;5097452;28;20476;-66
2022/10/21 07:50:52;;;;;;;13.80;10.60;;;11.60;99.90;;;;;;5097074;28;20658;-65
2022/10/21 07:53:20;;;;;;;16.10;11.10;;;11.70;99.90;;;;;;5097813;28;20551;-66
2022/10/21 07:55:47;;;;;;;13.50;9.73;;;11.70;99.90;;;;;;5097472;28;20541;-68
2022/10/21 07:58:15;;;;;;;10.70;9.20;;;11.80;99.90;;;;;;5097368;28;20536;-68
2022/10/21 08:00:43;;;;;;;11.73;9.83;;;11.90;99.90;;;;;;5096955;28;20557;-66
2022/10/21 08:03:11;;;;;;;11.70;10.50;;;12.00;99.90;;;;;;5097114;28;20457;-68
2022/10/21 08:05:41;;;;;;;15.27;11.87;;;12.00;99.90;;;;;;5097234;28;20489;-66
2022/10/21 08:08:08;;;;;;;15.00;11.67;;;12.10;99.90;;;;;;5096943;28;20484;-66
2022/10/21 08:10:40;;;;;;;12.77;10.10;;;12.20;99.90;;;;;;5097056;28;20464;-66
2022/10/21 08:13:06;;;;;;;12.97;9.70;;;12.30;99.90;;;;;;5097142;28;20445;-67
2022/10/21 08:15:35;;;;;;;17.20;10.13;;;12.20;99.90;;;;;;5097300;28;20453;-68
2022/10/21 08:18:02;;;;;;;15.33;9.80;;;12.30;99.90;;;;;;5097156;28;20781;-68
2022/10/21 08:20:28;;;;;;;10.80;9.00;;;12.30;99.90;;;;;;5097326;28;20457;-68
2022/10/21 08:22:55;;;;;;;15.03;10.63;;;12.40;99.90;;;;;;5096834;28;20936;-67
2022/10/21 08:25:22;;;;;;;14.40;10.13;;;12.50;99.90;;;;;;5096854;28;20489;-67
2022/10/21 08:27:49;;;;;;;11.83;8.77;;;12.50;99.90;;;;;;5095957;28;20975;-67
2022/10/21 08:30:16;;;;;;;11.23;9.70;;;12.50;99.90;;;;;;5096783;28;20528;-67
2022/10/21 08:32:44;;;;;;;13.00;9.30;;;12.50;99.90;;;;;;5096756;28;20858;-67
2022/10/21 08:35:11;;;;;;;14.63;10.03;;;12.50;99.90;;;;;;5096488;28;20530;-66
2022/10/21 08:37:38;;;;;;;13.53;10.77;;;12.60;99.90;;;;;;5095691;28;20849;-66
2022/10/21 08:40:06;;;;;;;12.23;10.27;;;12.60;99.90;;;;;;5095732;28;20585;-67
2022/10/21 08:42:33;;;;;;;11.53;9.87;;;12.70;99.90;;;;;;5096073;28;20910;-68
2022/10/21 08:45:05;;;;;;;11.80;9.97;;;12.80;99.90;;;;;;5096260;28;20521;-67
2022/10/21 08:47:36;;;;;;;11.53;10.30;;;12.90;99.90;;;;;;5096555;28;20837;-66
2022/10/21 08:50:10;;;;;;;12.23;10.53;;;12.90;99.90;;;;;;5096186;28;20958;-67
2022/10/21 08:52:43;;;;;;;14.13;10.00;;;13.00;99.90;;;;;;5096261;28;20438;-67
2022/10/21 08:55:17;;;;;;;14.60;10.40;;;13.10;99.90;;;;;;5096374;28;20489;-67
2022/10/21 08:57:44;;;;;;;14.53;10.33;;;13.30;99.90;;;;;;5095782;28;20444;-67
2022/10/21 09:00:16;;;;;;;11.53;9.73;;;13.30;99.90;;;;;;5095515;28;20518;-67
2022/10/21 09:03:00;;;;;;;14.03;9.83;;;13.40;99.90;;;;;;5095692;28;20841;-67
2022/10/21 09:05:45;;;;;;;15.03;9.80;;;13.60;99.90;;;;;;5096394;28;20437;-67
2022/10/21 09:08:22;;;;;;;12.00;9.43;;;13.70;99.90;;;;;;5096235;28;20548;-66
2022/10/21 09:11:01;;;;;;;11.90;10.07;;;13.70;99.90;;;;;;5096012;28;20452;-67
2022/10/21 09:13:49;;;;;;;13.10;9.57;;;13.90;99.90;;;;;;5095982;28;20818;-67
2022/10/21 09:16:22;;;;;;;10.93;9.50;;;14.00;99.90;;;;;;5095815;28;20437;-67
2022/10/21 09:18:59;;;;;;;12.40;10.73;;;13.90;99.90;;;;;;5095871;28;20524;-67
2022/10/21 09:21:38;;;;;;;13.67;10.83;;;13.90;99.90;;;;;;5095484;28;20448;-68
2022/10/21 09:24:08;;;;;;;11.30;9.83;;;14.00;99.90;;;;;;5095906;28;20433;-67
2022/10/21 09:26:41;;;;;;;11.77;9.80;;;14.00;99.90;;;;;;5095563;28;20823;-66
2022/10/21 09:29:25;;;;;;;20.83;10.57;;;13.90;99.90;;;;;;5095152;28;20473;-67
2022/10/21 09:31:53;;;;;;;12.50;10.10;;;13.90;99.90;;;;;;5095521;28;20452;-67
2022/10/21 09:34:32;;;;;;;11.47;9.87;;;13.90;99.90;;;;;;5095405;28;20460;-68
2022/10/21 09:37:02;;;;;;;13.73;9.90;;;14.00;99.90;;;;;;5095105;28;20437;-68
2022/10/21 09:39:40;;;;;;;13.00;10.00;;;14.10;99.90;;;;;;5095111;28;20536;-67
2022/10/21 09:42:11;;;;;;;12.80;10.80;;;14.30;99.90;;;;;;5095006;28;20880;-67
2022/10/21 09:44:38;;;;;;;11.47;9.63;;;14.40;99.90;;;;;;5094902;28;20441;-67
2022/10/21 09:47:17;;;;;;;11.97;9.70;;;14.60;99.90;;;;;;5095181;28;20476;-68
2022/10/21 09:49:48;;;;;;;10.93;9.80;;;14.70;99.90;;;;;;5094772;28;20964;-67
2022/10/21 09:52:18;;;;;;;13.60;9.97;;;14.70;99.90;;;;;;5095219;28;20437;-67
2022/10/21 09:54:45;;;;;;;11.00;9.70;;;14.70;99.90;;;;;;5095101;28;20465;-67
2022/10/21 09:57:15;;;;;;;12.57;9.90;;;14.70;99.90;;;;;;5094766;28;20471;-67
2022/10/21 10:00:01;;;;;;;13.17;11.30;;;14.70;99.90;;;;;;5094838;28;20924;-68
2022/10/21 10:02:31;;;;;;;11.40;10.17;;;14.70;99.90;;;;;;5094674;28;20866;-66
2022/10/21 10:04:58;;;;;;;15.80;9.97;;;14.80;99.90;;;;;;5094916;28;20448;-68
2022/10/21 10:07:35;;;;;;;17.27;10.70;;;14.90;99.90;;;;;;5094651;28;21030;-67
2022/10/21 10:10:03;;;;;;;13.40;11.00;;;14.90;99.90;;;;;;5094887;28;20441;-66
2022/10/21 10:12:30;;;;;;;10.53;9.53;;;15.00;99.90;;;;;;5095535;28;20536;-66
2022/10/21 10:15:17;;;;;;;14.43;10.80;;;15.00;99.90;;;;;;5095144;28;20562;-67
2022/10/21 10:17:44;;;;;;;13.97;10.40;;;15.10;99.90;;;;;;5094416;28;20449;-68
2022/10/21 10:20:20;;;;;;;12.50;11.20;;;15.20;99.90;;;;;;5094328;28;20464;-68
2022/10/21 10:23:08;;;;;;;12.17;9.77;;;15.30;99.90;;;;;;5094706;28;20452;-66
2022/10/21 10:25:38;;;;;;;10.97;9.80;;;15.50;99.90;;;;;;5094667;28;20441;-67
2022/10/21 10:28:18;;;;;;;12.10;10.27;;;15.60;99.90;;;;;;5094092;28;20564;-67
2022/10/21 10:30:49;;;;;;;11.00;9.20;;;15.60;99.90;;;;;;5094423;28;20530;-67
2022/10/21 10:33:18;;;;;;;13.43;10.27;;;15.80;99.90;;;;;;5094681;28;20547;-67
2022/10/21 10:35:51;;;;;;;10.73;9.63;;;15.90;99.90;;;;;;5094456;28;20489;-68
2022/10/21 10:38:26;;;;;;;11.50;10.00;;;16.00;99.90;;;;;;5094021;28;20448;-67
2022/10/21 10:40:53;;;;;;;11.87;10.47;;;16.10;99.90;;;;;;5094280;28;20528;-68
2022/10/21 10:43:27;;;;;;;11.63;9.00;;;16.10;99.90;;;;;;5093710;28;20564;-66
2022/10/21 10:45:57;;;;;;;11.90;10.70;;;16.20;99.90;;;;;;5094846;28;20438;-66
2022/10/21 10:48:36;;;;;;;10.93;9.83;;;16.30;99.90;;;;;;5095134;28;20484;-67
2022/10/21 10:51:06;;;;;;;13.13;10.20;;;16.30;99.90;;;;;;5095504;28;20437;-66
2022/10/21 10:53:36;;;;;;;12.43;10.30;;;16.30;99.90;;;;;;5094667;28;20544;-67
2022/10/21 10:56:26;;;;;;;17.87;9.80;;;16.40;99.90;;;;;;5094136;28;20544;-67
2022/10/21 10:59:00;;;;;;;11.97;10.20;;;16.50;99.90;;;;;;5089619;28;20778;-67
2022/10/21 11:01:31;;;;;;;11.10;9.93;;;16.70;99.90;;;;;;5095305;28;20438;-67
2022/10/21 11:04:05;;;;;;;13.77;9.43;;;16.80;99.90;;;;;;5097752;28;20452;-67
2022/10/21 11:06:38;;;;;;;10.23;9.13;;;16.90;99.90;;;;;;5098291;28;20495;-67
2022/10/21 11:09:07;;;;;;;10.77;9.67;;;17.00;99.90;;;;;;5097756;28;20945;-67
2022/10/21 11:11:38;;;;;;;11.83;10.73;;;17.20;99.90;;;;;;5097837;28;20813;-67
2022/10/21 11:14:12;;;;;;;9.80;8.80;;;17.20;99.90;;;;;;5097925;28;20453;-67
2022/10/21 11:17:00;;;;;;;11.67;10.00;;;17.30;99.90;;;;;;5097622;28;20442;-67
2022/10/21 11:19:34;;;;;;;10.90;9.80;;;17.30;99.90;;;;;;5097688;28;20447;-68
2022/10/21 11:22:12;;;;;;;11.20;10.00;;;17.20;99.90;;;;;;5097829;28;20556;-67
2022/10/21 11:25:03;;;;;;;10.80;9.70;;;17.10;99.90;;;;;;5099478;28;20446;-68
2022/10/21 11:27:58;;;;;;;11.83;9.80;;;17.20;99.90;;;;;;5101178;28;20441;-69
2022/10/21 11:30:33;;;;;;;14.80;10.80;;;17.00;99.90;;;;;;5102429;28;20476;-69
2022/10/21 11:33:07;;;;;;;15.27;10.60;;;16.90;99.90;;;;;;5101371;28;20521;-70
2022/10/21 11:35:41;;;;;;;13.33;11.00;;;16.90;99.90;;;;;;5101985;28;20526;-70
2022/10/21 11:38:34;;;;;;;11.57;10.37;;;16.80;99.90;;;;;;5099956;28;20447;-69
2022/10/21 11:41:13;;;;;;;11.93;10.53;;;16.90;99.90;;;;;;5100207;28;20541;-70
2022/10/21 11:43:46;;;;;;;13.83;10.00;;;17.10;99.90;;;;;;5100626;28;20441;-69
2022/10/21 11:46:18;;;;;;;10.73;9.73;;;17.20;99.90;;;;;;5099476;28;20472;-68
2022/10/21 11:49:05;;;;;;;12.03;10.77;;;17.50;99.90;;;;;;5099411;28;20535;-69
2022/10/21 11:51:39;;;;;;;22.53;11.00;;;17.50;99.90;;;;;;5100469;28;20441;-69
2022/10/21 11:54:37;;;;;;;13.47;10.70;;;17.30;99.90;;;;;;5101345;28;20452;-68
2022/10/21 11:57:10;;;;;;;11.83;10.57;;;17.00;99.90;;;;;;5065118;28;20544;-70
2022/10/21 11:59:57;;;;;;;13.43;9.93;;;16.90;99.90;;;;;;5099329;28;20805;-69
2022/10/21 12:02:34;;;;;;;14.47;10.50;;;16.90;99.90;;;;;;5100763;28;20528;-69
2022/10/21 12:05:07;;;;;;;11.63;9.70;;;17.10;99.90;;;;;;5098357;28;20437;-68
2022/10/21 12:07:50;;;;;;;13.00;9.80;;;17.30;99.90;;;;;;5097323;28;20520;-69
2022/10/21 12:10:30;;;;;;;15.70;10.50;;;17.60;99.90;;;;;;5098716;28;20442;-69
2022/10/21 12:13:04;;;;;;;11.43;9.90;;;18.20;99.90;;;;;;5099009;28;20448;-69
2022/10/21 12:15:40;;;;;;;12.80;10.20;;;18.60;99.90;;;;;;5098625;28;20455;-70
2022/10/21 12:18:14;;;;;;;12.77;10.17;;;18.40;99.90;;;;;;5099330;28;20536;-70
2022/10/21 12:20:41;;;;;;;14.27;9.90;;;18.10;99.90;;;;;;5098148;28;20453;-71
2022/10/21 12:23:13;;;;;;;11.87;9.50;;;18.20;99.90;;;;;;5097732;28;20454;-69
2022/10/21 12:25:46;;;;;;;9.70;8.80;;;18.60;99.90;;;;;;5097197;28;20442;-69
2022/10/21 12:28:20;;;;;;;10.13;8.83;;;19.30;99.90;;;;;;5096942;28;20500;-69
2022/10/21 12:30:54;;;;;;;9.87;8.93;;;19.90;99.90;;;;;;5096730;28;20461;-68
2022/10/21 12:33:34;;;;;;;11.83;9.93;;;20.10;99.90;;;;;;5097141;28;20445;-69
2022/10/21 12:36:16;;;;;;;11.10;8.53;;;19.90;99.90;;;;;;5097106;28;20442;-69
2022/10/21 12:38:45;;;;;;;10.47;9.37;;;19.40;99.90;;;;;;5097516;28;20433;-70
2022/10/21 12:41:37;;;;;;;10.77;8.93;;;19.00;99.90;;;;;;5099988;28;20471;-68
2022/10/21 12:44:21;;;;;;;11.00;9.60;;;18.60;99.90;;;;;;5079740;28;20468;-68
2022/10/21 12:46:51;;;;;;;12.33;9.33;;;18.40;99.90;;;;;;5097564;28;20465;-69
2022/10/21 12:49:26;;;;;;;16.10;10.30;;;18.30;99.90;;;;;;5097422;28;20487;-69
2022/10/21 12:51:58;;;;;;;17.70;10.17;;;18.20;99.90;;;;;;5097536;28;20556;-69
2022/10/21 12:54:29;;;;;;;13.80;9.47;;;18.10;99.90;;;;;;5096859;28;20516;-68